sensor_id;sensor_type;location;lat;lon;timestamp;P1;durP1;ratioP1;P2;durP2;ratioP2
51927;SDS011;37953;52.806;18.270;2023-05-31T00:02:19;11.23;;;3.40;;
51927;SDS011;37953;52.806;18.270;2023-05-31T00:04:45;10.55;;;3.60;;
51927;SDS011;37953;52.806;18.270;2023-05-31T00:07:17;17.08;;;4.28;;
51927;SDS011;37953;52.806;18.270;2023-05-31T00:09:43;16.63;;;3.80;;
51927;SDS011;37953;52.806;18.270;2023-05-31T00:12:09;11.15;;;3.47;;
51927;SDS011;37953;52.806;18.270;2023-05-31T00:14:35;11.20;;;3.83;;
51927;SDS011;37953;52.806;18.270;2023-05-31T00:17:01;9.05;;;3.42;;
51927;SDS011;37953;52.806;18.270;2023-05-31T00:19:27;11.02;;;3.42;;
51927;SDS011;37953;52.806;18.270;2023-05-31T00:21:53;7.85;;;2.67;;
51927;SDS011;37953;52.806;18.270;2023-05-31T00:24:19;6.88;;;2.50;;
51927;SDS011;37953;52.806;18.270;2023-05-31T00:26:45;6.57;;;2.55;;
51927;SDS011;37953;52.806;18.270;2023-05-31T00:29:11;13.30;;;2.65;;
51927;SDS011;37953;52.806;18.270;2023-05-31T00:31:37;7.20;;;2.45;;
51927;SDS011;37953;52.806;18.270;2023-05-31T00:34:03;6.65;;;2.33;;
51927;SDS011;37953;52.806;18.270;2023-05-31T00:36:29;9.32;;;2.80;;
51927;SDS011;37953;52.806;18.270;2023-05-31T00:38:56;8.48;;;3.05;;
51927;SDS011;37953;52.806;18.270;2023-05-31T00:41:22;7.32;;;2.58;;
51927;SDS011;37953;52.806;18.270;2023-05-31T00:43:48;7.32;;;2.45;;
51927;SDS011;37953;52.806;18.270;2023-05-31T00:46:19;9.95;;;3.03;;
51927;SDS011;37953;52.806;18.270;2023-05-31T00:49:04;8.18;;;2.90;;
51927;SDS011;37953;52.806;18.270;2023-05-31T00:51:36;9.35;;;3.40;;
51927;SDS011;37953;52.806;18.270;2023-05-31T00:54:02;8.55;;;3.10;;
51927;SDS011;37953;52.806;18.270;2023-05-31T00:56:29;7.35;;;2.75;;
51927;SDS011;37953;52.806;18.270;2023-05-31T00:58:56;8.55;;;2.80;;
51927;SDS011;37953;52.806;18.270;2023-05-31T01:01:22;9.38;;;3.22;;
51927;SDS011;37953;52.806;18.270;2023-05-31T01:03:53;7.32;;;2.75;;
51927;SDS011;37953;52.806;18.270;2023-05-31T01:06:19;7.50;;;2.75;;
51927;SDS011;37953;52.806;18.270;2023-05-31T01:08:45;9.80;;;3.15;;
51927;SDS011;37953;52.806;18.270;2023-05-31T01:11:19;9.93;;;3.60;;
51927;SDS011;37953;52.806;18.270;2023-05-31T01:13:58;13.13;;;3.58;;
51927;SDS011;37953;52.806;18.270;2023-05-31T01:16:59;13.40;;;3.65;;
51927;SDS011;37953;52.806;18.270;2023-05-31T01:20:06;11.25;;;3.30;;
51927;SDS011;37953;52.806;18.270;2023-05-31T01:28:54;9.23;;;3.30;;
51927;SDS011;37953;52.806;18.270;2023-05-31T01:31:22;11.05;;;3.30;;
51927;SDS011;37953;52.806;18.270;2023-05-31T01:33:50;11.57;;;3.47;;
51927;SDS011;37953;52.806;18.270;2023-05-31T01:36:16;12.73;;;3.85;;
51927;SDS011;37953;52.806;18.270;2023-05-31T01:38:42;13.30;;;3.58;;
51927;SDS011;37953;52.806;18.270;2023-05-31T01:41:08;8.38;;;3.38;;
51927;SDS011;37953;52.806;18.270;2023-05-31T01:43:41;8.60;;;3.35;;
51927;SDS011;37953;52.806;18.270;2023-05-31T01:46:14;8.43;;;3.38;;
51927;SDS011;37953;52.806;18.270;2023-05-31T01:48:42;10.25;;;3.50;;
51927;SDS011;37953;52.806;18.270;2023-05-31T01:51:15;11.35;;;3.60;;
51927;SDS011;37953;52.806;18.270;2023-05-31T01:53:41;8.88;;;3.45;;
51927;SDS011;37953;52.806;18.270;2023-05-31T01:56:08;8.77;;;3.45;;
51927;SDS011;37953;52.806;18.270;2023-05-31T01:58:34;29.17;;;7.03;;
51927;SDS011;37953;52.806;18.270;2023-05-31T02:01:03;8.38;;;3.70;;
51927;SDS011;37953;52.806;18.270;2023-05-31T02:03:35;11.07;;;4.07;;
51927;SDS011;37953;52.806;18.270;2023-05-31T02:06:02;10.88;;;4.00;;
51927;SDS011;37953;52.806;18.270;2023-05-31T02:08:28;10.82;;;4.05;;
51927;SDS011;37953;52.806;18.270;2023-05-31T02:10:54;16.83;;;4.90;;
51927;SDS011;37953;52.806;18.270;2023-05-31T02:13:22;14.20;;;4.60;;
51927;SDS011;37953;52.806;18.270;2023-05-31T02:15:55;14.45;;;5.18;;
51927;SDS011;37953;52.806;18.270;2023-05-31T02:18:22;12.38;;;5.68;;
51927;SDS011;37953;52.806;18.270;2023-05-31T02:20:48;17.15;;;5.93;;
51927;SDS011;37953;52.806;18.270;2023-05-31T02:23:14;13.65;;;5.80;;
51927;SDS011;37953;52.806;18.270;2023-05-31T02:25:40;15.40;;;5.88;;
51927;SDS011;37953;52.806;18.270;2023-05-31T02:31:00;13.27;;;4.72;;
51927;SDS011;37953;52.806;18.270;2023-05-31T02:33:33;12.05;;;4.60;;
51927;SDS011;37953;52.806;18.270;2023-05-31T02:35:59;12.75;;;4.45;;
51927;SDS011;37953;52.806;18.270;2023-05-31T02:38:25;12.73;;;4.35;;
51927;SDS011;37953;52.806;18.270;2023-05-31T02:40:51;13.35;;;4.60;;
51927;SDS011;37953;52.806;18.270;2023-05-31T02:43:18;11.90;;;4.60;;
51927;SDS011;37953;52.806;18.270;2023-05-31T02:45:44;13.40;;;4.80;;
51927;SDS011;37953;52.806;18.270;2023-05-31T02:48:10;14.05;;;5.43;;
51927;SDS011;37953;52.806;18.270;2023-05-31T02:50:36;11.55;;;4.38;;
51927;SDS011;37953;52.806;18.270;2023-05-31T02:53:02;13.30;;;4.68;;
51927;SDS011;37953;52.806;18.270;2023-05-31T02:55:30;11.38;;;4.43;;
51927;SDS011;37953;52.806;18.270;2023-05-31T02:57:56;8.98;;;3.38;;
51927;SDS011;37953;52.806;18.270;2023-05-31T03:00:29;11.10;;;3.72;;
51927;SDS011;37953;52.806;18.270;2023-05-31T03:02:55;7.25;;;3.53;;
51927;SDS011;37953;52.806;18.270;2023-05-31T03:05:20;10.20;;;3.75;;
51927;SDS011;37953;52.806;18.270;2023-05-31T03:07:48;12.90;;;3.72;;
51927;SDS011;37953;52.806;18.270;2023-05-31T03:10:14;8.70;;;3.47;;
51927;SDS011;37953;52.806;18.270;2023-05-31T03:12:41;10.02;;;3.50;;
51927;SDS011;37953;52.806;18.270;2023-05-31T03:15:07;10.23;;;3.28;;
51927;SDS011;37953;52.806;18.270;2023-05-31T03:17:34;8.77;;;3.53;;
51927;SDS011;37953;52.806;18.270;2023-05-31T03:20:06;10.75;;;3.17;;
51927;SDS011;37953;52.806;18.270;2023-05-31T03:22:38;9.85;;;3.33;;
51927;SDS011;37953;52.806;18.270;2023-05-31T03:25:04;10.32;;;3.72;;
51927;SDS011;37953;52.806;18.270;2023-05-31T03:27:31;9.88;;;3.10;;
51927;SDS011;37953;52.806;18.270;2023-05-31T03:29:57;8.32;;;3.20;;
51927;SDS011;37953;52.806;18.270;2023-05-31T03:32:23;10.77;;;3.35;;
51927;SDS011;37953;52.806;18.270;2023-05-31T03:34:49;11.98;;;3.53;;
51927;SDS011;37953;52.806;18.270;2023-05-31T03:37:15;8.23;;;2.78;;
51927;SDS011;37953;52.806;18.270;2023-05-31T03:39:41;12.77;;;3.22;;
51927;SDS011;37953;52.806;18.270;2023-05-31T03:42:07;7.57;;;3.00;;
51927;SDS011;37953;52.806;18.270;2023-05-31T03:44:33;12.15;;;2.90;;
51927;SDS011;37953;52.806;18.270;2023-05-31T03:46:59;8.98;;;3.17;;
51927;SDS011;37953;52.806;18.270;2023-05-31T03:49:25;10.43;;;3.05;;
51927;SDS011;37953;52.806;18.270;2023-05-31T03:51:51;8.80;;;3.17;;
51927;SDS011;37953;52.806;18.270;2023-05-31T03:54:17;8.00;;;2.78;;
51927;SDS011;37953;52.806;18.270;2023-05-31T03:56:43;7.32;;;2.63;;
51927;SDS011;37953;52.806;18.270;2023-05-31T03:59:09;9.35;;;3.45;;
51927;SDS011;37953;52.806;18.270;2023-05-31T04:01:35;8.00;;;3.33;;
51927;SDS011;37953;52.806;18.270;2023-05-31T04:04:01;9.68;;;3.83;;
51927;SDS011;37953;52.806;18.270;2023-05-31T04:06:27;9.68;;;3.70;;
51927;SDS011;37953;52.806;18.270;2023-05-31T04:08:54;12.43;;;3.92;;
51927;SDS011;37953;52.806;18.270;2023-05-31T04:11:20;9.35;;;3.00;;
51927;SDS011;37953;52.806;18.270;2023-05-31T04:13:46;9.50;;;3.70;;
51927;SDS011;37953;52.806;18.270;2023-05-31T04:16:12;11.30;;;3.60;;
51927;SDS011;37953;52.806;18.270;2023-05-31T04:18:38;9.13;;;3.30;;
51927;SDS011;37953;52.806;18.270;2023-05-31T04:21:04;8.43;;;3.28;;
51927;SDS011;37953;52.806;18.270;2023-05-31T04:23:30;7.38;;;3.35;;
51927;SDS011;37953;52.806;18.270;2023-05-31T04:25:56;9.73;;;3.58;;
51927;SDS011;37953;52.806;18.270;2023-05-31T04:28:23;9.98;;;3.38;;
51927;SDS011;37953;52.806;18.270;2023-05-31T04:30:49;10.32;;;3.08;;
51927;SDS011;37953;52.806;18.270;2023-05-31T04:33:22;8.77;;;2.75;;
51927;SDS011;37953;52.806;18.270;2023-05-31T04:35:57;13.68;;;3.10;;
51927;SDS011;37953;52.806;18.270;2023-05-31T04:38:23;8.52;;;3.00;;
51927;SDS011;37953;52.806;18.270;2023-05-31T04:40:53;10.37;;;3.43;;
51927;SDS011;37953;52.806;18.270;2023-05-31T04:43:25;7.32;;;3.15;;
51927;SDS011;37953;52.806;18.270;2023-05-31T04:45:51;9.52;;;3.00;;
51927;SDS011;37953;52.806;18.270;2023-05-31T04:48:18;9.75;;;2.88;;
51927;SDS011;37953;52.806;18.270;2023-05-31T04:50:45;9.48;;;2.97;;
51927;SDS011;37953;52.806;18.270;2023-05-31T04:53:11;7.65;;;2.60;;
51927;SDS011;37953;52.806;18.270;2023-05-31T04:55:38;9.48;;;3.08;;
51927;SDS011;37953;52.806;18.270;2023-05-31T04:58:03;8.30;;;3.15;;
51927;SDS011;37953;52.806;18.270;2023-05-31T05:00:30;9.43;;;2.90;;
51927;SDS011;37953;52.806;18.270;2023-05-31T05:02:57;12.95;;;3.33;;
51927;SDS011;37953;52.806;18.270;2023-05-31T05:05:24;8.35;;;3.17;;
51927;SDS011;37953;52.806;18.270;2023-05-31T05:07:51;9.68;;;3.60;;
51927;SDS011;37953;52.806;18.270;2023-05-31T05:10:17;12.50;;;3.60;;
51927;SDS011;37953;52.806;18.270;2023-05-31T05:12:43;9.38;;;3.00;;
51927;SDS011;37953;52.806;18.270;2023-05-31T05:15:09;7.97;;;3.17;;
51927;SDS011;37953;52.806;18.270;2023-05-31T05:17:35;9.20;;;3.38;;
51927;SDS011;37953;52.806;18.270;2023-05-31T05:20:02;7.03;;;3.13;;
51927;SDS011;37953;52.806;18.270;2023-05-31T05:22:30;10.63;;;2.95;;
51927;SDS011;37953;52.806;18.270;2023-05-31T05:24:56;9.13;;;2.95;;
51927;SDS011;37953;52.806;18.270;2023-05-31T05:27:23;8.32;;;2.88;;
51927;SDS011;37953;52.806;18.270;2023-05-31T05:29:49;8.48;;;2.72;;
51927;SDS011;37953;52.806;18.270;2023-05-31T05:32:15;6.95;;;2.70;;
51927;SDS011;37953;52.806;18.270;2023-05-31T05:34:41;7.53;;;2.35;;
51927;SDS011;37953;52.806;18.270;2023-05-31T05:37:07;6.78;;;2.25;;
51927;SDS011;37953;52.806;18.270;2023-05-31T05:39:33;11.45;;;2.97;;
51927;SDS011;37953;52.806;18.270;2023-05-31T05:42:05;7.50;;;2.55;;
51927;SDS011;37953;52.806;18.270;2023-05-31T05:44:32;6.53;;;2.40;;
51927;SDS011;37953;52.806;18.270;2023-05-31T05:46:59;10.25;;;2.60;;
51927;SDS011;37953;52.806;18.270;2023-05-31T05:49:25;8.55;;;2.30;;
51927;SDS011;37953;52.806;18.270;2023-05-31T05:51:51;9.32;;;2.50;;
51927;SDS011;37953;52.806;18.270;2023-05-31T05:54:17;5.70;;;1.92;;
51927;SDS011;37953;52.806;18.270;2023-05-31T05:56:43;5.10;;;2.00;;
51927;SDS011;37953;52.806;18.270;2023-05-31T05:59:09;9.27;;;1.67;;
51927;SDS011;37953;52.806;18.270;2023-05-31T06:01:35;6.68;;;2.20;;
51927;SDS011;37953;52.806;18.270;2023-05-31T06:04:01;5.38;;;1.73;;
51927;SDS011;37953;52.806;18.270;2023-05-31T06:06:27;6.72;;;1.88;;
51927;SDS011;37953;52.806;18.270;2023-05-31T06:08:53;7.05;;;1.88;;
51927;SDS011;37953;52.806;18.270;2023-05-31T06:11:19;5.00;;;2.15;;
51927;SDS011;37953;52.806;18.270;2023-05-31T06:13:45;5.57;;;1.63;;
51927;SDS011;37953;52.806;18.270;2023-05-31T06:16:12;5.82;;;1.83;;
51927;SDS011;37953;52.806;18.270;2023-05-31T06:18:39;7.28;;;2.08;;
51927;SDS011;37953;52.806;18.270;2023-05-31T06:21:05;7.07;;;1.90;;
51927;SDS011;37953;52.806;18.270;2023-05-31T06:23:32;4.90;;;1.80;;
51927;SDS011;37953;52.806;18.270;2023-05-31T06:25:57;7.00;;;1.88;;
51927;SDS011;37953;52.806;18.270;2023-05-31T06:28:24;4.82;;;1.65;;
51927;SDS011;37953;52.806;18.270;2023-05-31T06:30:49;6.88;;;1.80;;
51927;SDS011;37953;52.806;18.270;2023-05-31T06:33:16;4.93;;;1.70;;
51927;SDS011;37953;52.806;18.270;2023-05-31T06:35:42;7.72;;;1.50;;
51927;SDS011;37953;52.806;18.270;2023-05-31T06:38:14;5.93;;;1.52;;
51927;SDS011;37953;52.806;18.270;2023-05-31T06:40:42;5.97;;;1.40;;
51927;SDS011;37953;52.806;18.270;2023-05-31T06:43:09;6.75;;;1.63;;
51927;SDS011;37953;52.806;18.270;2023-05-31T06:45:35;8.70;;;1.60;;
51927;SDS011;37953;52.806;18.270;2023-05-31T06:48:02;2.75;;;1.23;;
51927;SDS011;37953;52.806;18.270;2023-05-31T06:50:34;8.18;;;2.10;;
51927;SDS011;37953;52.806;18.270;2023-05-31T06:53:00;6.72;;;1.85;;
51927;SDS011;37953;52.806;18.270;2023-05-31T06:55:26;5.85;;;1.60;;
51927;SDS011;37953;52.806;18.270;2023-05-31T06:57:52;4.45;;;1.27;;
51927;SDS011;37953;52.806;18.270;2023-05-31T07:00:18;5.53;;;1.35;;
51927;SDS011;37953;52.806;18.270;2023-05-31T07:02:45;5.05;;;1.00;;
51927;SDS011;37953;52.806;18.270;2023-05-31T07:05:11;3.70;;;1.10;;
51927;SDS011;37953;52.806;18.270;2023-05-31T07:07:37;5.70;;;1.58;;
51927;SDS011;37953;52.806;18.270;2023-05-31T07:10:03;5.68;;;1.67;;
51927;SDS011;37953;52.806;18.270;2023-05-31T07:12:31;4.85;;;1.40;;
51927;SDS011;37953;52.806;18.270;2023-05-31T07:14:57;2.95;;;1.02;;
51927;SDS011;37953;52.806;18.270;2023-05-31T07:17:23;2.45;;;0.93;;
51927;SDS011;37953;52.806;18.270;2023-05-31T07:19:49;6.60;;;1.27;;
51927;SDS011;37953;52.806;18.270;2023-05-31T07:22:18;2.78;;;1.00;;
51927;SDS011;37953;52.806;18.270;2023-05-31T07:24:44;4.38;;;1.30;;
51927;SDS011;37953;52.806;18.270;2023-05-31T07:27:10;3.22;;;1.08;;
51927;SDS011;37953;52.806;18.270;2023-05-31T07:29:36;4.28;;;1.40;;
51927;SDS011;37953;52.806;18.270;2023-05-31T07:32:03;1.95;;;0.90;;
51927;SDS011;37953;52.806;18.270;2023-05-31T07:34:29;5.88;;;1.08;;
51927;SDS011;37953;52.806;18.270;2023-05-31T07:36:55;2.22;;;0.82;;
51927;SDS011;37953;52.806;18.270;2023-05-31T07:39:21;2.85;;;1.17;;
51927;SDS011;37953;52.806;18.270;2023-05-31T07:41:47;1.90;;;1.05;;
51927;SDS011;37953;52.806;18.270;2023-05-31T07:44:13;4.53;;;0.88;;
51927;SDS011;37953;52.806;18.270;2023-05-31T07:46:42;2.97;;;1.02;;
51927;SDS011;37953;52.806;18.270;2023-05-31T07:49:08;2.10;;;0.85;;
51927;SDS011;37953;52.806;18.270;2023-05-31T07:51:34;2.22;;;0.80;;
51927;SDS011;37953;52.806;18.270;2023-05-31T07:54:01;1.45;;;0.93;;
51927;SDS011;37953;52.806;18.270;2023-05-31T07:56:28;2.80;;;0.90;;
51927;SDS011;37953;52.806;18.270;2023-05-31T07:58:54;17.13;;;3.35;;
51927;SDS011;37953;52.806;18.270;2023-05-31T08:01:21;3.78;;;1.20;;
51927;SDS011;37953;52.806;18.270;2023-05-31T08:03:47;3.40;;;1.10;;
51927;SDS011;37953;52.806;18.270;2023-05-31T08:06:19;5.78;;;1.02;;
51927;SDS011;37953;52.806;18.270;2023-05-31T08:08:46;4.63;;;1.38;;
51927;SDS011;37953;52.806;18.270;2023-05-31T08:11:12;3.20;;;1.00;;
51927;SDS011;37953;52.806;18.270;2023-05-31T08:13:39;6.03;;;1.33;;
51927;SDS011;37953;52.806;18.270;2023-05-31T08:16:06;3.45;;;1.10;;
51927;SDS011;37953;52.806;18.270;2023-05-31T08:18:32;4.40;;;1.42;;
51927;SDS011;37953;52.806;18.270;2023-05-31T08:20:58;4.82;;;1.33;;
51927;SDS011;37953;52.806;18.270;2023-05-31T08:23:24;5.85;;;1.50;;
51927;SDS011;37953;52.806;18.270;2023-05-31T08:25:50;3.47;;;1.30;;
51927;SDS011;37953;52.806;18.270;2023-05-31T08:28:18;3.92;;;1.38;;
51927;SDS011;37953;52.806;18.270;2023-05-31T08:30:44;3.67;;;1.17;;
51927;SDS011;37953;52.806;18.270;2023-05-31T08:33:17;4.55;;;1.80;;
51927;SDS011;37953;52.806;18.270;2023-05-31T08:35:43;3.95;;;1.30;;
51927;SDS011;37953;52.806;18.270;2023-05-31T08:38:09;4.32;;;1.42;;
51927;SDS011;37953;52.806;18.270;2023-05-31T08:40:35;3.00;;;1.55;;
51927;SDS011;37953;52.806;18.270;2023-05-31T08:43:08;4.43;;;1.30;;
51927;SDS011;37953;52.806;18.270;2023-05-31T08:45:44;3.23;;;1.50;;
51927;SDS011;37953;52.806;18.270;2023-05-31T08:50:59;3.33;;;1.25;;
51927;SDS011;37953;52.806;18.270;2023-05-31T08:53:26;2.85;;;1.27;;
51927;SDS011;37953;52.806;18.270;2023-05-31T08:55:54;1.95;;;1.10;;
51927;SDS011;37953;52.806;18.270;2023-05-31T08:58:20;3.67;;;1.60;;
51927;SDS011;37953;52.806;18.270;2023-05-31T09:00:48;7.18;;;1.73;;
51927;SDS011;37953;52.806;18.270;2023-05-31T09:03:14;5.93;;;1.80;;
51927;SDS011;37953;52.806;18.270;2023-05-31T09:05:40;3.53;;;1.52;;
51927;SDS011;37953;52.806;18.270;2023-05-31T09:08:06;5.05;;;1.50;;
51927;SDS011;37953;52.806;18.270;2023-05-31T09:10:33;4.25;;;1.33;;
51927;SDS011;37953;52.806;18.270;2023-05-31T09:12:59;6.45;;;1.10;;
51927;SDS011;37953;52.806;18.270;2023-05-31T09:15:25;5.22;;;1.27;;
51927;SDS011;37953;52.806;18.270;2023-05-31T09:17:53;4.78;;;1.25;;
51927;SDS011;37953;52.806;18.270;2023-05-31T09:20:27;3.00;;;1.05;;
51927;SDS011;37953;52.806;18.270;2023-05-31T09:22:56;3.15;;;1.00;;
51927;SDS011;37953;52.806;18.270;2023-05-31T09:25:22;3.28;;;0.85;;
51927;SDS011;37953;52.806;18.270;2023-05-31T09:27:48;6.70;;;1.33;;
51927;SDS011;37953;52.806;18.270;2023-05-31T09:30:14;3.58;;;1.10;;
51927;SDS011;37953;52.806;18.270;2023-05-31T09:32:40;3.58;;;1.10;;
51927;SDS011;37953;52.806;18.270;2023-05-31T09:35:18;3.47;;;1.15;;
51927;SDS011;37953;52.806;18.270;2023-05-31T09:37:48;5.22;;;1.40;;
51927;SDS011;37953;52.806;18.270;2023-05-31T09:40:15;4.38;;;1.45;;
51927;SDS011;37953;52.806;18.270;2023-05-31T09:42:51;3.80;;;1.30;;
51927;SDS011;37953;52.806;18.270;2023-05-31T09:45:19;2.83;;;1.20;;
51927;SDS011;37953;52.806;18.270;2023-05-31T09:47:46;4.57;;;1.10;;
51927;SDS011;37953;52.806;18.270;2023-05-31T09:50:19;3.95;;;1.17;;
51927;SDS011;37953;52.806;18.270;2023-05-31T09:52:48;3.72;;;1.00;;
51927;SDS011;37953;52.806;18.270;2023-05-31T09:55:22;3.75;;;1.23;;
51927;SDS011;37953;52.806;18.270;2023-05-31T09:57:50;3.55;;;1.20;;
51927;SDS011;37953;52.806;18.270;2023-05-31T10:00:23;3.38;;;1.10;;
51927;SDS011;37953;52.806;18.270;2023-05-31T10:02:52;4.18;;;1.27;;
51927;SDS011;37953;52.806;18.270;2023-05-31T10:05:24;2.60;;;1.15;;
51927;SDS011;37953;52.806;18.270;2023-05-31T10:07:51;3.10;;;1.30;;
51927;SDS011;37953;52.806;18.270;2023-05-31T10:10:18;2.22;;;1.10;;
51927;SDS011;37953;52.806;18.270;2023-05-31T10:12:51;5.68;;;1.40;;
51927;SDS011;37953;52.806;18.270;2023-05-31T10:15:23;3.97;;;1.38;;
51927;SDS011;37953;52.806;18.270;2023-05-31T10:17:52;4.65;;;1.17;;
51927;SDS011;37953;52.806;18.270;2023-05-31T10:20:23;3.67;;;1.23;;
51927;SDS011;37953;52.806;18.270;2023-05-31T10:22:52;3.42;;;1.00;;
51927;SDS011;37953;52.806;18.270;2023-05-31T10:27:55;5.55;;;1.17;;
51927;SDS011;37953;52.806;18.270;2023-05-31T10:30:26;4.55;;;1.40;;
51927;SDS011;37953;52.806;18.270;2023-05-31T10:33:14;3.85;;;1.20;;
51927;SDS011;37953;52.806;18.270;2023-05-31T10:35:44;5.55;;;1.17;;
51927;SDS011;37953;52.806;18.270;2023-05-31T10:38:10;3.55;;;1.17;;
51927;SDS011;37953;52.806;18.270;2023-05-31T10:40:39;5.43;;;1.33;;
51927;SDS011;37953;52.806;18.270;2023-05-31T10:45:46;6.22;;;1.60;;
51927;SDS011;37953;52.806;18.270;2023-05-31T10:48:39;2.97;;;1.17;;
51927;SDS011;37953;52.806;18.270;2023-05-31T10:51:42;3.80;;;1.23;;
51927;SDS011;37953;52.806;18.270;2023-05-31T10:54:20;4.15;;;1.35;;
51927;SDS011;37953;52.806;18.270;2023-05-31T10:56:52;4.63;;;1.40;;
51927;SDS011;37953;52.806;18.270;2023-05-31T10:59:18;3.90;;;1.08;;
51927;SDS011;37953;52.806;18.270;2023-05-31T11:01:45;3.72;;;1.13;;
51927;SDS011;37953;52.806;18.270;2023-05-31T11:04:24;2.78;;;1.35;;
51927;SDS011;37953;52.806;18.270;2023-05-31T11:06:54;4.10;;;1.20;;
51927;SDS011;37953;52.806;18.270;2023-05-31T11:09:53;4.07;;;1.20;;
51927;SDS011;37953;52.806;18.270;2023-05-31T11:12:35;5.15;;;1.88;;
51927;SDS011;37953;52.806;18.270;2023-05-31T11:15:12;6.50;;;1.42;;
51927;SDS011;37953;52.806;18.270;2023-05-31T11:17:40;4.63;;;1.55;;
51927;SDS011;37953;52.806;18.270;2023-05-31T11:20:16;4.20;;;1.33;;
51927;SDS011;37953;52.806;18.270;2023-05-31T11:22:44;3.35;;;1.42;;
51927;SDS011;37953;52.806;18.270;2023-05-31T11:25:17;3.88;;;1.45;;
51927;SDS011;37953;52.806;18.270;2023-05-31T11:27:46;4.95;;;1.58;;
51927;SDS011;37953;52.806;18.270;2023-05-31T11:30:17;4.55;;;1.33;;
51927;SDS011;37953;52.806;18.270;2023-05-31T11:35:22;3.67;;;1.08;;
51927;SDS011;37953;52.806;18.270;2023-05-31T11:37:48;4.68;;;1.42;;
51927;SDS011;37953;52.806;18.270;2023-05-31T11:40:16;3.85;;;1.38;;
51927;SDS011;37953;52.806;18.270;2023-05-31T11:42:43;4.38;;;1.50;;
51927;SDS011;37953;52.806;18.270;2023-05-31T11:45:10;5.90;;;1.60;;
51927;SDS011;37953;52.806;18.270;2023-05-31T11:50:12;7.57;;;1.40;;
51927;SDS011;37953;52.806;18.270;2023-05-31T11:52:42;5.55;;;1.60;;
51927;SDS011;37953;52.806;18.270;2023-05-31T11:55:09;6.20;;;1.42;;
51927;SDS011;37953;52.806;18.270;2023-05-31T11:57:42;5.43;;;1.20;;
51927;SDS011;37953;52.806;18.270;2023-05-31T12:00:17;3.58;;;1.60;;
51927;SDS011;37953;52.806;18.270;2023-05-31T12:02:50;3.07;;;1.20;;
51927;SDS011;37953;52.806;18.270;2023-05-31T12:05:18;6.75;;;1.80;;
51927;SDS011;37953;52.806;18.270;2023-05-31T12:07:47;3.17;;;1.33;;
51927;SDS011;37953;52.806;18.270;2023-05-31T12:10:18;4.00;;;1.55;;
51927;SDS011;37953;52.806;18.270;2023-05-31T12:12:45;2.85;;;1.25;;
51927;SDS011;37953;52.806;18.270;2023-05-31T12:17:42;4.20;;;1.30;;
51927;SDS011;37953;52.806;18.270;2023-05-31T12:20:08;4.00;;;1.30;;
51927;SDS011;37953;52.806;18.270;2023-05-31T12:22:38;3.85;;;1.52;;
51927;SDS011;37953;52.806;18.270;2023-05-31T12:25:04;5.47;;;1.67;;
51927;SDS011;37953;52.806;18.270;2023-05-31T12:27:31;4.03;;;1.60;;
51927;SDS011;37953;52.806;18.270;2023-05-31T12:29:57;7.32;;;1.38;;
51927;SDS011;37953;52.806;18.270;2023-05-31T12:32:26;2.67;;;1.08;;
51927;SDS011;37953;52.806;18.270;2023-05-31T12:35:07;2.92;;;1.30;;
51927;SDS011;37953;52.806;18.270;2023-05-31T12:37:35;6.03;;;1.65;;
51927;SDS011;37953;52.806;18.270;2023-05-31T12:40:12;5.68;;;1.58;;
51927;SDS011;37953;52.806;18.270;2023-05-31T12:42:43;4.90;;;1.42;;
51927;SDS011;37953;52.806;18.270;2023-05-31T12:45:17;4.07;;;1.40;;
51927;SDS011;37953;52.806;18.270;2023-05-31T12:47:44;3.53;;;1.48;;
51927;SDS011;37953;52.806;18.270;2023-05-31T12:50:10;4.65;;;1.45;;
51927;SDS011;37953;52.806;18.270;2023-05-31T12:52:37;5.82;;;1.40;;
51927;SDS011;37953;52.806;18.270;2023-05-31T12:55:07;4.50;;;1.70;;
51927;SDS011;37953;52.806;18.270;2023-05-31T12:57:34;7.28;;;1.65;;
51927;SDS011;37953;52.806;18.270;2023-05-31T13:00:04;4.60;;;1.45;;
51927;SDS011;37953;52.806;18.270;2023-05-31T13:02:35;4.70;;;1.50;;
51927;SDS011;37953;52.806;18.270;2023-05-31T13:05:05;2.35;;;1.40;;
51927;SDS011;37953;52.806;18.270;2023-05-31T13:07:32;3.50;;;1.17;;
51927;SDS011;37953;52.806;18.270;2023-05-31T13:09:59;7.03;;;1.70;;
51927;SDS011;37953;52.806;18.270;2023-05-31T13:12:25;4.93;;;1.65;;
51927;SDS011;37953;52.806;18.270;2023-05-31T13:14:57;2.47;;;1.30;;
51927;SDS011;37953;52.806;18.270;2023-05-31T13:17:23;6.70;;;1.50;;
51927;SDS011;37953;52.806;18.270;2023-05-31T13:19:49;6.18;;;1.90;;
51927;SDS011;37953;52.806;18.270;2023-05-31T13:22:15;3.90;;;1.17;;
51927;SDS011;37953;52.806;18.270;2023-05-31T13:24:41;5.32;;;1.55;;
51927;SDS011;37953;52.806;18.270;2023-05-31T13:27:08;4.18;;;1.50;;
51927;SDS011;37953;52.806;18.270;2023-05-31T13:29:34;6.43;;;1.60;;
51927;SDS011;37953;52.806;18.270;2023-05-31T13:32:00;4.95;;;1.75;;
51927;SDS011;37953;52.806;18.270;2023-05-31T13:34:26;7.60;;;1.55;;
51927;SDS011;37953;52.806;18.270;2023-05-31T13:36:52;8.30;;;1.38;;
51927;SDS011;37953;52.806;18.270;2023-05-31T13:39:18;7.30;;;1.70;;
51927;SDS011;37953;52.806;18.270;2023-05-31T13:41:44;4.78;;;1.33;;
51927;SDS011;37953;52.806;18.270;2023-05-31T13:44:11;5.68;;;1.50;;
51927;SDS011;37953;52.806;18.270;2023-05-31T13:46:41;4.72;;;1.45;;
51927;SDS011;37953;52.806;18.270;2023-05-31T13:49:08;4.50;;;1.38;;
51927;SDS011;37953;52.806;18.270;2023-05-31T13:51:34;6.40;;;1.50;;
51927;SDS011;37953;52.806;18.270;2023-05-31T13:54:00;3.80;;;1.48;;
51927;SDS011;37953;52.806;18.270;2023-05-31T13:56:26;5.85;;;1.88;;
51927;SDS011;37953;52.806;18.270;2023-05-31T13:58:52;6.47;;;1.63;;
51927;SDS011;37953;52.806;18.270;2023-05-31T14:01:19;4.18;;;1.50;;
51927;SDS011;37953;52.806;18.270;2023-05-31T14:03:45;5.75;;;1.50;;
51927;SDS011;37953;52.806;18.270;2023-05-31T14:06:12;7.43;;;1.60;;
51927;SDS011;37953;52.806;18.270;2023-05-31T14:08:38;5.65;;;1.40;;
51927;SDS011;37953;52.806;18.270;2023-05-31T14:11:04;13.75;;;1.80;;
51927;SDS011;37953;52.806;18.270;2023-05-31T14:13:37;3.70;;;1.40;;
51927;SDS011;37953;52.806;18.270;2023-05-31T14:16:03;4.30;;;1.27;;
51927;SDS011;37953;52.806;18.270;2023-05-31T14:18:29;8.45;;;1.30;;
51927;SDS011;37953;52.806;18.270;2023-05-31T14:20:55;6.32;;;1.60;;
51927;SDS011;37953;52.806;18.270;2023-05-31T14:23:21;6.38;;;1.35;;
51927;SDS011;37953;52.806;18.270;2023-05-31T14:25:48;4.30;;;1.80;;
51927;SDS011;37953;52.806;18.270;2023-05-31T14:28:14;7.28;;;1.60;;
51927;SDS011;37953;52.806;18.270;2023-05-31T14:30:40;2.95;;;1.30;;
51927;SDS011;37953;52.806;18.270;2023-05-31T14:33:06;4.68;;;1.40;;
51927;SDS011;37953;52.806;18.270;2023-05-31T14:35:32;4.90;;;1.33;;
51927;SDS011;37953;52.806;18.270;2023-05-31T14:37:58;2.67;;;1.05;;
51927;SDS011;37953;52.806;18.270;2023-05-31T14:40:24;3.00;;;1.17;;
51927;SDS011;37953;52.806;18.270;2023-05-31T14:42:51;6.43;;;1.40;;
51927;SDS011;37953;52.806;18.270;2023-05-31T14:45:17;6.07;;;1.27;;
51927;SDS011;37953;52.806;18.270;2023-05-31T14:47:43;3.15;;;1.33;;
51927;SDS011;37953;52.806;18.270;2023-05-31T14:50:09;2.25;;;1.33;;
51927;SDS011;37953;52.806;18.270;2023-05-31T14:52:35;2.33;;;1.52;;
51927;SDS011;37953;52.806;18.270;2023-05-31T14:55:01;2.17;;;1.10;;
51927;SDS011;37953;52.806;18.270;2023-05-31T14:57:28;4.65;;;1.30;;
51927;SDS011;37953;52.806;18.270;2023-05-31T14:59:54;5.90;;;1.85;;
51927;SDS011;37953;52.806;18.270;2023-05-31T15:02:20;5.28;;;1.40;;
51927;SDS011;37953;52.806;18.270;2023-05-31T15:04:46;6.28;;;1.40;;